Airfield :
LOGIN :

Register | Disclaimer

   EN    FR    IT 

 










Legend :    VFR   Marginal VFR   IFR   Intensive IFR   Very Intensive IFR
Visi :
Ceiling :
>= 8 km
>= 3000ft
5 to 8 km
1000 to 3000 ft
1500m to 5 km
500 to 1000 ft
800 to 1500m
200 to 500 ft
< 800m
< 200 ft
Symbols :   Thunderstorms  Fog  Heavy snow  Heavy precipitations  Wind > 20 kt
SIGMETs :     Misc.  Thunderstorms  Icing  Turbulence  Mountain Waves  Volcanic Ashes






- Airport Elevation : 119 ft
- IATA code : WAT


EIWF - Waterford

CURRENT METAR :
  • 031030Z 01009KT 320V060 9999 BKN017 13/10 Q1014

EXPIRED METARs :
  • 031000Z 02008KT 340V060 9999 BKN018 13/09 Q1014
  • 030930Z 02008G24KT 330V060 9999 BKN019 13/09 Q1014
  • 030900Z 02009G22KT 320V060 9999 BKN019 13/09 Q1014
  • 030830Z 02009KT 330V070 9999 SCT019 BKN031 13/09 Q1014
  • 030800Z 01008G19KT 330V080 9999 BKN013 12/10 Q1014

TAF TAF EIWF
Valid from the 03 at 09:00 until the 03 at 18:00 UTC


030800Z 0309/0318 36015KT 9999 BKN016
TEMPO 0309/0315 01017G27KT
TEMPO 0309/0311 BKN009
ATIS : +353 51 877 000



MET'MAP, your aeronautical weather chart ! - Copyright ORBIFLY December 2007 - Disclaimer

ORBIFLY MET'MAP TEAM :

Programming & Development : Alexandra Zaïnal
Concept & original design : Baudouin d'Aumeries
Assistance for programming : Marc-Olivier Méhu
Technical & hardware support : Manuel Goepfert

Contact : metmap@orbifly.com




SOURCES & CREDITS :

   NOAA